createdAt,value
2017-10-18T00:00:28.344Z,7.00
2017-10-18T00:01:05.922Z,7.35
2017-10-18T00:01:43.179Z,8.23
2017-10-18T00:02:20.680Z,7.78
2017-10-18T00:02:57.747Z,8.32
2017-10-18T00:03:35.435Z,8.73
2017-10-18T00:04:12.070Z,7.10
2017-10-18T00:04:49.649Z,8.30
2017-10-18T00:05:26.461Z,8.82
2017-10-18T00:06:04.017Z,7.75
2017-10-18T00:06:40.940Z,7.97
2017-10-18T00:07:19.045Z,7.82
2017-10-18T00:07:56.160Z,7.30
2017-10-18T00:08:33.653Z,8.02
2017-10-18T00:09:10.939Z,8.23
2017-10-18T00:09:48.826Z,7.55
2017-10-18T00:10:26.504Z,7.70
2017-10-18T00:11:04.287Z,8.32
2017-10-18T00:11:41.583Z,7.90
2017-10-18T00:12:19.508Z,8.15
2017-10-18T00:12:56.588Z,8.07
2017-10-18T00:13:34.017Z,7.87
2017-10-18T00:14:10.822Z,8.43
2017-10-18T00:14:48.553Z,8.05
2017-10-18T00:15:25.715Z,8.07
2017-10-18T00:16:03.237Z,7.68
2017-10-18T00:16:40.066Z,7.10
2017-10-18T00:17:17.687Z,8.20
2017-10-18T00:17:54.482Z,8.45
2017-10-18T00:18:32.000Z,8.05
2017-10-18T00:19:11.620Z,8.00
2017-10-18T00:19:50.157Z,7.85
2017-10-18T00:20:26.801Z,8.18
2017-10-18T00:21:04.300Z,7.85
2017-10-18T00:21:41.359Z,7.72
2017-10-18T00:22:19.387Z,9.18
2017-10-18T00:22:56.250Z,8.25
2017-10-18T00:23:33.829Z,9.25
2017-10-18T00:24:10.694Z,7.90
2017-10-18T00:24:48.508Z,8.48
2017-10-18T00:25:26.291Z,7.60
2017-10-18T00:26:03.701Z,8.50
2017-10-18T00:26:41.290Z,8.93
2017-10-18T00:27:19.180Z,8.15
2017-10-18T00:27:56.826Z,7.60
2017-10-18T00:28:34.489Z,9.30
2017-10-18T00:29:12.183Z,7.72
2017-10-18T00:29:49.837Z,7.65
2017-10-18T00:30:27.527Z,8.20
2017-10-18T00:31:05.087Z,7.75
2017-10-18T00:31:42.719Z,7.95
2017-10-18T00:32:20.541Z,8.13
2017-10-18T00:32:59.260Z,8.50
2017-10-18T00:33:37.218Z,7.95
2017-10-18T00:34:15.122Z,8.25
2017-10-18T00:34:53.455Z,7.80
2017-10-18T00:35:31.072Z,7.15
2017-10-18T00:36:08.796Z,8.52
2017-10-18T00:36:46.729Z,7.12
2017-10-18T00:37:25.248Z,9.45
2017-10-18T00:38:02.932Z,8.20
2017-10-18T00:38:40.512Z,7.60
2017-10-18T00:39:17.902Z,7.05
2017-10-18T00:39:55.588Z,7.57
2017-10-18T00:40:33.228Z,7.93
2017-10-18T00:41:10.834Z,7.03
2017-10-18T00:41:48.977Z,8.63
2017-10-18T00:42:27.385Z,7.50
2017-10-18T00:43:05.175Z,8.13
2017-10-18T00:43:43.157Z,8.10
2017-10-18T00:44:20.495Z,8.10
2017-10-18T00:44:59.295Z,8.10
2017-10-18T00:45:36.938Z,8.35
2017-10-18T00:46:13.878Z,8.30
2017-10-18T00:46:51.271Z,8.02
2017-10-18T00:47:29.143Z,7.47
2017-10-18T00:48:06.555Z,8.60
2017-10-18T00:48:44.041Z,7.85
2017-10-18T00:49:20.944Z,7.50
2017-10-18T00:49:58.584Z,7.35
2017-10-18T00:50:35.525Z,8.63
2017-10-18T00:51:13.265Z,7.35
2017-10-18T00:51:50.673Z,8.82
2017-10-18T00:52:28.335Z,8.50
2017-10-18T00:53:05.038Z,7.37
2017-10-18T00:53:39.641Z,8.23
2017-10-18T00:54:14.370Z,8.07
2017-10-18T00:54:49.097Z,7.90
2017-10-18T00:55:23.870Z,7.30
2017-10-18T00:55:58.600Z,7.82
2017-10-18T00:56:33.311Z,7.32
2017-10-18T00:57:08.103Z,8.75
2017-10-18T00:57:42.871Z,9.05
2017-10-18T00:58:17.964Z,6.95
2017-10-18T00:58:52.806Z,7.47
2017-10-18T00:59:27.349Z,8.20
2017-10-18T01:00:02.303Z,7.32
2017-10-18T01:00:37.007Z,7.87
2017-10-18T01:01:11.750Z,7.87
2017-10-18T01:01:46.453Z,8.75
2017-10-18T01:02:21.156Z,8.55
2017-10-18T01:02:55.859Z,8.05
2017-10-18T01:03:30.929Z,9.07
2017-10-18T01:04:05.624Z,8.35
2017-10-18T01:04:40.322Z,8.63
2017-10-18T01:05:15.034Z,8.57
2017-10-18T01:05:49.744Z,7.65
2017-10-18T01:06:24.116Z,7.18
2017-10-18T01:06:58.826Z,6.80
2017-10-18T01:07:33.542Z,7.65
2017-10-18T01:08:08.255Z,7.62
2017-10-18T01:08:42.992Z,7.40
2017-10-18T01:09:17.757Z,8.82
2017-10-18T01:09:52.526Z,8.95
2017-10-18T01:10:27.265Z,7.60
2017-10-18T01:11:02.022Z,8.20
2017-10-18T01:11:36.731Z,7.55
2017-10-18T01:12:11.455Z,8.60
2017-10-18T01:12:46.176Z,9.43
2017-10-18T01:13:20.890Z,8.57
2017-10-18T01:13:55.886Z,8.75
2017-10-18T01:14:30.589Z,7.97
2017-10-18T01:15:05.343Z,7.72
2017-10-18T01:15:40.078Z,7.70
2017-10-18T01:16:14.798Z,7.82
2017-10-18T01:16:49.506Z,9.48
2017-10-18T01:17:24.051Z,8.23
2017-10-18T01:17:58.769Z,7.90
2017-10-18T01:18:33.467Z,7.70
2017-10-18T01:19:08.566Z,7.10
2017-10-18T01:19:43.261Z,8.35
2017-10-18T01:20:17.631Z,7.28
2017-10-18T01:20:52.319Z,8.07
2017-10-18T01:21:26.671Z,8.70
2017-10-18T01:22:01.384Z,8.50
2017-10-18T01:22:36.088Z,7.85
2017-10-18T01:23:10.800Z,10.02
2017-10-18T01:23:45.582Z,8.25
2017-10-18T01:24:20.639Z,9.00
2017-10-18T01:24:55.356Z,9.32
2017-10-18T01:25:30.064Z,7.87
2017-10-18T01:26:04.422Z,9.10
2017-10-18T01:26:39.130Z,8.05
2017-10-18T01:27:13.843Z,9.50
2017-10-18T01:27:48.542Z,8.00
2017-10-18T01:28:23.247Z,8.80
2017-10-18T01:28:57.621Z,8.60
2017-10-18T01:29:32.665Z,9.38
2017-10-18T01:30:07.380Z,7.50
2017-10-18T01:30:42.109Z,8.85
2017-10-18T01:31:16.884Z,8.10
2017-10-18T01:31:51.597Z,7.20
2017-10-18T01:32:26.285Z,7.65
2017-10-18T01:33:01.000Z,8.98
2017-10-18T01:33:35.718Z,8.82
2017-10-18T01:34:10.410Z,8.90
2017-10-18T01:34:45.132Z,7.85
2017-10-18T01:35:19.841Z,8.20
2017-10-18T01:35:54.355Z,9.20
2017-10-18T01:36:29.080Z,8.43
2017-10-18T01:37:03.774Z,7.47
2017-10-18T01:37:38.494Z,8.50
2017-10-18T01:38:13.194Z,8.02
2017-10-18T01:38:47.894Z,8.10
2017-10-18T01:39:22.598Z,8.05
2017-10-18T01:39:57.322Z,8.35
2017-10-18T01:40:32.011Z,8.60
2017-10-18T01:41:06.709Z,7.93
2017-10-18T01:41:41.424Z,8.50
2017-10-18T01:42:15.934Z,8.10
2017-10-18T01:42:50.630Z,8.27
2017-10-18T01:43:25.384Z,8.48
2017-10-18T01:44:00.078Z,8.10
2017-10-18T01:44:34.770Z,7.72
2017-10-18T01:45:09.484Z,7.90
2017-10-18T01:45:44.434Z,9.07
2017-10-18T01:46:19.136Z,9.10
2017-10-18T01:46:53.830Z,9.20
2017-10-18T01:47:28.568Z,7.85
2017-10-18T01:48:03.283Z,7.70
2017-10-18T01:48:37.978Z,9.20
2017-10-18T01:49:12.706Z,8.57
2017-10-18T01:49:47.726Z,8.48
2017-10-18T01:50:22.419Z,9.15
2017-10-18T01:50:57.113Z,9.73
2017-10-18T01:51:31.814Z,7.82
2017-10-18T01:52:06.502Z,8.15
2017-10-18T01:52:41.200Z,9.15
2017-10-18T01:53:16.015Z,8.27
2017-10-18T01:53:50.709Z,8.00
2017-10-18T01:54:25.399Z,8.20
2017-10-18T01:55:00.382Z,8.88
2017-10-18T01:55:35.195Z,7.80
2017-10-18T01:56:09.889Z,8.85
2017-10-18T01:56:44.587Z,7.37
2017-10-18T01:57:19.417Z,8.07
2017-10-18T01:57:54.125Z,7.53
2017-10-18T01:58:28.805Z,8.55
2017-10-18T01:59:03.525Z,8.50
2017-10-18T01:59:38.230Z,8.18
2017-10-18T02:00:13.311Z,8.25
2017-10-18T02:00:48.015Z,8.75
2017-10-18T02:01:22.703Z,8.43
2017-10-18T02:01:57.408Z,8.55
2017-10-18T02:02:32.110Z,8.00
2017-10-18T02:03:06.827Z,8.95
2017-10-18T02:03:41.539Z,7.78
2017-10-18T02:04:16.270Z,8.07
2017-10-18T02:04:50.967Z,8.77
2017-10-18T02:05:25.682Z,8.27
2017-10-18T02:06:00.395Z,8.93
2017-10-18T02:06:35.110Z,8.00
2017-10-18T02:07:09.806Z,9.60
2017-10-18T02:07:44.498Z,7.90
2017-10-18T02:08:19.207Z,8.70
2017-10-18T02:08:53.925Z,8.18
2017-10-18T02:09:28.631Z,7.43
2017-10-18T02:10:02.983Z,8.55
2017-10-18T02:10:38.062Z,8.82
2017-10-18T02:11:12.781Z,8.82
2017-10-18T02:11:47.491Z,8.80
2017-10-18T02:12:22.005Z,8.15
2017-10-18T02:12:56.703Z,8.95
2017-10-18T02:13:31.385Z,8.45
2017-10-18T02:14:06.079Z,8.05
2017-10-18T02:14:40.790Z,7.87
2017-10-18T02:15:15.508Z,8.80
2017-10-18T02:15:50.578Z,9.45
2017-10-18T02:16:25.266Z,9.70
2017-10-18T02:16:59.957Z,7.87
2017-10-18T02:17:34.653Z,8.20
2017-10-18T02:18:09.354Z,8.40
2017-10-18T02:18:44.058Z,8.63
2017-10-18T02:19:18.767Z,9.35
2017-10-18T02:19:53.562Z,9.38
2017-10-18T02:20:28.258Z,8.95
2017-10-18T02:21:03.262Z,8.70
2017-10-18T02:21:37.969Z,8.50
2017-10-18T02:22:12.688Z,8.20
2017-10-18T02:22:47.419Z,8.25
2017-10-18T02:23:22.115Z,7.68
2017-10-18T02:23:56.818Z,8.55
2017-10-18T02:24:31.533Z,8.25
2017-10-18T02:25:06.300Z,7.75
2017-10-18T02:25:41.007Z,8.40
2017-10-18T02:26:16.058Z,8.75
2017-10-18T02:26:50.762Z,8.65
2017-10-18T02:27:25.458Z,8.48
2017-10-18T02:28:00.156Z,9.15
2017-10-18T02:28:34.849Z,7.85
2017-10-18T02:29:09.563Z,7.82
2017-10-18T02:29:44.274Z,8.32
2017-10-18T02:30:19.033Z,7.70
2017-10-18T02:30:53.758Z,8.02
2017-10-18T02:31:28.775Z,8.05
2017-10-18T02:32:03.474Z,8.02
2017-10-18T02:32:38.301Z,7.50
2017-10-18T02:33:12.826Z,9.73
2017-10-18T02:33:47.335Z,8.32
2017-10-18T02:34:22.031Z,8.27
2017-10-18T02:34:56.746Z,8.75
2017-10-18T02:35:31.449Z,8.50
2017-10-18T02:36:05.965Z,8.65
2017-10-18T02:36:40.753Z,8.88
2017-10-18T02:37:15.459Z,8.32
2017-10-18T02:37:50.207Z,8.50
2017-10-18T02:38:24.901Z,8.15
2017-10-18T02:38:59.605Z,8.13
2017-10-18T02:39:34.314Z,8.27
2017-10-18T02:40:09.027Z,8.18
2017-10-18T02:40:43.748Z,9.18
2017-10-18T02:41:18.452Z,8.68
2017-10-18T02:41:53.534Z,9.30
2017-10-18T02:42:28.937Z,8.93
2017-10-18T02:43:03.655Z,8.18
2017-10-18T02:43:38.347Z,8.82
2017-10-18T02:44:13.045Z,8.63
2017-10-18T02:44:47.761Z,8.52
2017-10-18T02:45:22.481Z,8.55
2017-10-18T02:45:57.188Z,8.70
2017-10-18T02:46:31.890Z,7.72
2017-10-18T02:47:06.878Z,8.50
2017-10-18T02:47:41.595Z,8.45
2017-10-18T02:48:16.299Z,8.25
2017-10-18T02:48:51.017Z,9.02
2017-10-18T02:49:25.370Z,7.80
2017-10-18T02:50:00.080Z,8.15
2017-10-18T02:50:34.449Z,7.85
2017-10-18T02:51:09.186Z,8.90
2017-10-18T02:51:43.906Z,7.62
2017-10-18T02:52:18.701Z,8.75
2017-10-18T02:52:53.410Z,7.95
2017-10-18T02:53:28.108Z,9.10
2017-10-18T02:54:02.797Z,8.95
2017-10-18T02:54:37.314Z,8.20
2017-10-18T02:55:12.014Z,9.27
2017-10-18T02:55:46.714Z,8.82
2017-10-18T02:56:21.421Z,9.60
2017-10-18T02:56:56.126Z,8.75
2017-10-18T02:57:30.929Z,8.65
2017-10-18T02:58:05.871Z,8.60
2017-10-18T02:58:40.619Z,8.70
2017-10-18T03:00:21.039Z,8.55
2017-10-18T03:00:55.750Z,8.60
2017-10-18T03:01:30.487Z,7.50
2017-10-18T03:02:05.178Z,8.77
2017-10-18T03:02:40.163Z,8.65
2017-10-18T03:03:14.950Z,7.10
2017-10-18T03:03:49.665Z,8.57
2017-10-18T03:04:25.951Z,8.80
2017-10-18T03:05:00.662Z,9.20
2017-10-18T03:05:35.546Z,8.25
2017-10-18T03:06:10.261Z,9.15
2017-10-18T03:06:45.907Z,8.55
2017-10-18T03:07:20.251Z,9.00
2017-10-18T03:07:55.338Z,9.85
2017-10-18T03:08:30.039Z,9.52
2017-10-18T03:09:04.384Z,8.85
2017-10-18T03:09:39.083Z,8.80
2017-10-18T03:10:13.807Z,8.68
2017-10-18T03:10:48.753Z,9.20
2017-10-18T03:11:23.496Z,7.78
2017-10-18T03:11:58.191Z,9.75
2017-10-18T03:12:32.900Z,9.10
2017-10-18T03:13:08.019Z,9.60
2017-10-18T03:13:42.737Z,10.13
2017-10-18T03:14:17.448Z,9.20
2017-10-18T03:14:52.206Z,8.55
2017-10-18T03:15:27.098Z,8.65
2017-10-18T03:16:01.810Z,8.95
2017-10-18T03:16:36.508Z,9.52
2017-10-18T03:17:11.238Z,9.13
2017-10-18T03:17:45.770Z,8.27
2017-10-18T03:18:20.819Z,8.65
2017-10-18T03:18:55.575Z,9.63
2017-10-18T03:19:30.282Z,8.23
2017-10-18T03:20:04.806Z,8.95
2017-10-18T03:20:39.555Z,8.30
2017-10-18T03:21:14.257Z,9.05
2017-10-18T03:21:48.953Z,8.05
2017-10-18T03:22:23.652Z,9.57
2017-10-18T03:22:58.175Z,8.43
2017-10-18T03:23:33.219Z,10.13
2017-10-18T03:24:07.929Z,8.30
2017-10-18T03:24:42.643Z,9.38
2017-10-18T03:25:17.356Z,8.85
2017-10-18T03:25:51.865Z,9.32
2017-10-18T03:26:26.563Z,8.90
2017-10-18T03:27:00.922Z,9.48
2017-10-18T03:27:35.085Z,9.48
2017-10-18T03:28:09.835Z,8.60
2017-10-18T03:28:44.722Z,8.48
2017-10-18T03:29:19.091Z,9.75
2017-10-18T03:29:53.449Z,8.77
2017-10-18T03:30:28.156Z,8.77
2017-10-18T03:31:02.864Z,9.40
2017-10-18T03:31:37.214Z,9.13
2017-10-18T03:32:11.910Z,9.50
2017-10-18T03:32:46.620Z,9.13
2017-10-18T03:33:21.318Z,9.75
2017-10-18T03:33:56.324Z,8.77
2017-10-18T03:34:30.841Z,8.32
2017-10-18T03:35:05.547Z,9.13
2017-10-18T03:35:40.248Z,8.65
2017-10-18T03:36:15.102Z,9.32
2017-10-18T03:36:49.822Z,8.70
2017-10-18T03:37:24.184Z,10.35
2017-10-18T03:37:58.890Z,8.95
2017-10-18T03:38:33.624Z,10.20
2017-10-18T03:39:08.096Z,8.30
2017-10-18T03:39:42.659Z,9.60
2017-10-18T03:40:17.187Z,8.82
2017-10-18T03:40:51.729Z,8.48
2017-10-18T03:41:26.480Z,9.13
2017-10-18T03:42:01.175Z,9.18
2017-10-18T03:42:35.877Z,8.52
2017-10-18T03:43:10.576Z,7.50
2017-10-18T03:43:45.323Z,8.70
2017-10-18T03:44:20.306Z,9.18
2017-10-18T03:44:55.019Z,9.25
2017-10-18T03:45:29.771Z,8.20
2017-10-18T03:46:04.473Z,8.90
2017-10-18T03:46:39.177Z,8.82
2017-10-18T03:47:13.882Z,8.50
2017-10-18T03:47:48.603Z,8.82
2017-10-18T03:48:23.308Z,9.15
2017-10-18T03:48:58.014Z,8.73
2017-10-18T03:49:33.018Z,9.27
2017-10-18T03:50:07.715Z,8.65
2017-10-18T03:50:42.412Z,8.50
2017-10-18T03:51:17.113Z,9.57
2017-10-18T03:51:51.829Z,10.20
2017-10-18T03:52:26.542Z,10.30
2017-10-18T03:53:01.258Z,8.90
2017-10-18T03:53:35.980Z,9.15
2017-10-18T03:54:10.683Z,8.75
2017-10-18T03:54:45.399Z,9.63
2017-10-18T03:55:20.098Z,8.43
2017-10-18T03:55:54.807Z,8.23
2017-10-18T03:56:29.520Z,9.90
2017-10-18T03:57:04.214Z,9.18
2017-10-18T03:57:38.941Z,9.00
2017-10-18T03:58:13.655Z,9.40
2017-10-18T03:58:48.369Z,9.15
2017-10-18T03:59:23.087Z,8.52
2017-10-18T03:59:57.802Z,9.52
2017-10-18T04:00:32.539Z,9.02
2017-10-18T04:01:07.251Z,10.63
2017-10-18T04:01:42.068Z,8.73
2017-10-18T04:02:16.762Z,9.25
2017-10-18T04:02:51.470Z,9.30
2017-10-18T04:03:26.191Z,9.10
2017-10-18T04:04:00.883Z,8.60
2017-10-18T04:04:35.594Z,9.02
2017-10-18T04:05:10.330Z,9.80
2017-10-18T04:05:45.027Z,10.48
2017-10-18T04:06:19.750Z,10.55
2017-10-18T04:06:54.451Z,9.80
2017-10-18T04:07:28.805Z,8.90
2017-10-18T04:08:03.519Z,10.02
2017-10-18T04:08:38.226Z,9.43
2017-10-18T04:09:12.582Z,9.98
2017-10-18T04:09:47.318Z,10.00
2017-10-18T04:10:22.040Z,10.52
2017-10-18T04:10:56.745Z,10.75
2017-10-18T04:11:31.449Z,11.45
2017-10-18T04:12:06.149Z,10.63
2017-10-18T04:12:40.850Z,10.60
2017-10-18T04:13:15.562Z,10.32
2017-10-18T04:13:50.270Z,11.10
2017-10-18T04:14:24.991Z,11.07
2017-10-18T04:14:59.714Z,11.07
2017-10-18T04:15:34.418Z,10.98
2017-10-18T04:16:09.129Z,10.52
2017-10-18T04:16:43.834Z,10.10
2017-10-18T04:17:18.555Z,11.48
2017-10-18T04:17:53.331Z,11.00
2017-10-18T04:18:28.034Z,11.00
2017-10-18T04:19:02.751Z,10.43
2017-10-18T04:19:37.460Z,9.57
2017-10-18T04:20:12.189Z,10.20
2017-10-18T04:20:46.705Z,9.73
2017-10-18T04:21:21.400Z,9.48
2017-10-18T04:21:56.106Z,9.75
2017-10-18T04:22:30.820Z,10.45
2017-10-18T04:23:05.540Z,10.45
2017-10-18T04:23:40.259Z,9.27
2017-10-18T04:24:14.969Z,9.88
2017-10-18T04:24:49.710Z,9.88
2017-10-18T04:25:24.428Z,10.30
2017-10-18T04:25:59.137Z,10.00
2017-10-18T04:26:33.885Z,10.20
2017-10-18T04:27:08.586Z,9.90
2017-10-18T04:27:43.383Z,10.40
2017-10-18T04:28:18.083Z,8.90
2017-10-18T04:28:52.830Z,10.02
2017-10-18T04:29:27.535Z,10.13
2017-10-18T04:30:02.295Z,10.65
2017-10-18T04:30:37.017Z,11.23
2017-10-18T04:31:11.732Z,9.98
2017-10-18T04:31:46.092Z,11.90
2017-10-18T04:32:20.808Z,11.00
2017-10-18T04:32:55.539Z,11.80
2017-10-18T04:33:29.894Z,11.45
2017-10-18T04:34:04.629Z,11.30
2017-10-18T04:34:39.354Z,11.15
2017-10-18T04:35:14.073Z,11.80
2017-10-18T04:35:48.778Z,10.88
2017-10-18T04:36:23.491Z,11.82
2017-10-18T04:36:58.210Z,11.57
2017-10-18T04:37:32.919Z,12.55
2017-10-18T04:38:07.634Z,11.50
2017-10-18T04:38:42.334Z,12.43
2017-10-18T04:39:17.050Z,10.57
2017-10-18T04:39:52.039Z,11.88
2017-10-18T04:40:26.407Z,11.73
2017-10-18T04:41:01.115Z,11.07
2017-10-18T04:41:35.483Z,12.10
2017-10-18T04:42:10.018Z,11.05
2017-10-18T04:42:44.419Z,11.25
2017-10-18T04:43:19.149Z,13.55
2017-10-18T04:43:53.938Z,10.65
2017-10-18T04:44:28.643Z,11.73
2017-10-18T04:45:03.384Z,11.25
2017-10-18T04:45:38.093Z,10.30
2017-10-18T04:46:12.808Z,10.90
2017-10-18T04:46:47.528Z,11.25
2017-10-18T04:47:22.246Z,10.65
2017-10-18T04:47:56.771Z,10.50
2017-10-18T04:48:31.126Z,11.23
2017-10-18T04:49:05.825Z,11.30
2017-10-18T04:49:40.178Z,10.07
2017-10-18T04:50:14.884Z,10.95
2017-10-18T04:50:49.406Z,9.63
2017-10-18T04:51:23.786Z,10.63
2017-10-18T04:51:58.517Z,11.07
2017-10-18T04:52:33.231Z,10.80
2017-10-18T04:53:08.019Z,11.10
2017-10-18T04:53:42.716Z,10.82
2017-10-18T04:54:17.417Z,10.98
2017-10-18T04:54:52.123Z,11.23
2017-10-18T04:55:27.106Z,10.70
2017-10-18T04:56:01.810Z,11.27
2017-10-18T04:56:36.517Z,9.10
2017-10-18T04:57:11.286Z,11.98
2017-10-18T04:57:46.071Z,11.23
2017-10-18T04:58:20.779Z,10.07
2017-10-18T04:58:55.499Z,11.77
2017-10-18T04:59:30.206Z,9.85
2017-10-18T05:00:04.912Z,10.23
2017-10-18T05:00:41.400Z,11.32
2017-10-18T05:01:16.177Z,11.43
2017-10-18T05:01:50.899Z,12.07
2017-10-18T05:02:26.241Z,11.50
2017-10-18T05:03:00.965Z,10.18
2017-10-18T05:03:36.434Z,10.98
2017-10-18T05:04:11.005Z,11.85
2017-10-18T05:04:45.744Z,10.57
2017-10-18T05:05:20.450Z,11.60
2017-10-18T05:05:55.083Z,11.20
2017-10-18T05:06:29.459Z,11.55
2017-10-18T05:07:03.863Z,11.80
2017-10-18T05:07:38.236Z,11.48
2017-10-18T05:08:12.958Z,11.88
2017-10-18T05:08:47.673Z,12.18
2017-10-18T05:09:22.034Z,12.43
2017-10-18T05:09:56.784Z,11.40
2017-10-18T05:10:31.493Z,10.68
2017-10-18T05:11:06.524Z,11.57
2017-10-18T05:11:41.267Z,11.85
2017-10-18T05:12:15.985Z,11.40
2017-10-18T05:12:50.709Z,11.18
2017-10-18T05:13:25.425Z,11.70
2017-10-18T05:13:59.863Z,12.02
2017-10-18T05:14:34.573Z,11.35
2017-10-18T05:15:09.299Z,10.55
2017-10-18T05:15:44.010Z,11.32
2017-10-18T05:16:18.735Z,11.50
2017-10-18T05:16:52.940Z,11.40
2017-10-18T05:17:27.641Z,12.05
2017-10-18T05:18:02.349Z,10.85
2017-10-18T05:18:37.068Z,10.82
2017-10-18T05:19:11.782Z,10.88
2017-10-18T05:19:46.485Z,11.90
2017-10-18T05:20:20.858Z,11.35
2017-10-18T05:20:55.258Z,11.10
2017-10-18T05:21:29.934Z,12.35
2017-10-18T05:22:04.486Z,11.38
2017-10-18T05:22:38.849Z,11.63
2017-10-18T05:23:13.546Z,10.25
2017-10-18T05:23:48.262Z,11.20
2017-10-18T05:24:22.974Z,12.30
2017-10-18T05:24:57.690Z,12.07
2017-10-18T05:25:32.432Z,10.75
2017-10-18T05:26:06.950Z,10.93
2017-10-18T05:26:42.000Z,11.40
2017-10-18T05:27:16.931Z,12.02
2017-10-18T05:27:51.646Z,11.12
2017-10-18T05:28:26.020Z,11.85
2017-10-18T05:29:00.581Z,11.45
2017-10-18T05:29:35.312Z,12.00
2017-10-18T05:30:10.035Z,12.50
2017-10-18T05:30:44.763Z,10.68
2017-10-18T05:31:19.475Z,12.45
2017-10-18T05:31:54.594Z,11.98
2017-10-18T05:32:29.304Z,12.25
2017-10-18T05:33:04.011Z,11.45
2017-10-18T05:33:38.748Z,11.57
2017-10-18T05:34:13.503Z,11.88
2017-10-18T05:34:48.213Z,12.68
2017-10-18T05:35:22.929Z,11.12
2017-10-18T05:35:57.640Z,12.32
2017-10-18T05:36:32.350Z,11.88
2017-10-18T05:37:07.121Z,12.65
2017-10-18T05:37:41.833Z,12.30
2017-10-18T05:38:16.581Z,11.52
2017-10-18T05:38:51.314Z,12.45
2017-10-18T05:39:26.060Z,12.00
2017-10-18T05:40:00.759Z,13.45
2017-10-18T05:40:35.499Z,13.05
2017-10-18T05:41:10.207Z,13.40
2017-10-18T05:41:44.916Z,12.82
2017-10-18T05:42:19.642Z,12.70
2017-10-18T05:42:54.350Z,13.30
2017-10-18T05:43:29.079Z,12.45
2017-10-18T05:44:03.800Z,13.45
2017-10-18T05:44:38.513Z,13.43
2017-10-18T05:45:13.242Z,12.48
2017-10-18T05:45:48.780Z,13.90
2017-10-18T05:46:23.494Z,13.35
2017-10-18T05:46:58.218Z,12.50
2017-10-18T05:47:32.939Z,12.40
2017-10-18T05:48:07.658Z,12.70
2017-10-18T05:48:42.367Z,11.85
2017-10-18T05:49:17.078Z,12.20
2017-10-18T05:49:51.798Z,12.98
2017-10-18T05:50:26.535Z,13.02
2017-10-18T05:51:01.241Z,12.77
2017-10-18T05:51:35.808Z,12.40
2017-10-18T05:52:10.578Z,14.57
2017-10-18T05:52:45.301Z,12.80
2017-10-18T05:53:20.003Z,12.30
2017-10-18T05:53:54.752Z,12.80
2017-10-18T05:54:29.464Z,16.60
2017-10-18T05:55:04.178Z,18.60
2017-10-18T05:55:38.893Z,16.42
2017-10-18T05:56:13.608Z,14.70
2017-10-18T05:56:48.126Z,12.13
2017-10-18T05:57:22.839Z,13.35
2017-10-18T05:58:03.242Z,12.18
2017-10-18T05:58:38.034Z,12.90
2017-10-18T05:59:12.771Z,12.90
2017-10-18T05:59:47.471Z,12.88
2017-10-18T06:00:21.830Z,11.85
2017-10-18T06:00:56.540Z,12.90
2017-10-18T06:01:31.251Z,12.50
2017-10-18T06:02:06.295Z,11.80
2017-10-18T06:02:41.006Z,13.35
2017-10-18T06:03:15.742Z,12.70
2017-10-18T06:03:50.464Z,13.32
2017-10-18T06:04:25.171Z,13.38
2017-10-18T06:04:59.875Z,12.02
2017-10-18T06:05:34.587Z,11.52
2017-10-18T06:06:09.299Z,13.75
2017-10-18T06:06:44.034Z,12.15
2017-10-18T06:07:18.785Z,11.50
2017-10-18T06:07:53.480Z,12.02
2017-10-18T06:08:28.194Z,11.70
2017-10-18T06:09:02.907Z,11.80
2017-10-18T06:09:37.621Z,12.25
2017-10-18T06:10:12.347Z,13.45
2017-10-18T06:10:47.189Z,12.20
2017-10-18T06:11:21.906Z,11.73
2017-10-18T06:11:56.625Z,11.70
2017-10-18T06:12:31.343Z,12.43
2017-10-18T06:13:06.102Z,11.65
2017-10-18T06:13:40.861Z,13.43
2017-10-18T06:14:15.573Z,13.45
2017-10-18T06:14:50.302Z,12.95
2017-10-18T06:15:25.020Z,12.10
2017-10-18T06:15:59.760Z,12.95
2017-10-18T06:16:34.475Z,12.50
2017-10-18T06:17:08.851Z,12.50
2017-10-18T06:17:43.387Z,12.52
2017-10-18T06:18:17.923Z,12.48
2017-10-18T06:18:52.450Z,12.57
2017-10-18T06:19:26.994Z,11.85
2017-10-18T06:20:01.702Z,13.02
2017-10-18T06:20:36.253Z,11.40
2017-10-18T06:21:10.791Z,11.48
2017-10-18T06:21:45.585Z,11.85
2017-10-18T06:22:20.319Z,11.65
2017-10-18T06:22:55.030Z,12.10
2017-10-18T06:23:29.210Z,12.23
2017-10-18T06:24:03.739Z,12.18
2017-10-18T06:24:38.253Z,11.75
2017-10-18T06:25:12.950Z,12.50
2017-10-18T06:25:47.646Z,13.10
2017-10-18T06:26:22.155Z,11.20
2017-10-18T06:26:56.870Z,10.90
2017-10-18T06:27:31.954Z,11.30
2017-10-18T06:28:06.911Z,10.55
2017-10-18T06:28:41.622Z,12.10
2017-10-18T06:29:16.142Z,10.88
2017-10-18T06:29:50.879Z,11.65
2017-10-18T06:30:25.590Z,12.07
2017-10-18T06:31:00.310Z,11.45
2017-10-18T06:31:35.021Z,11.50
2017-10-18T06:32:09.549Z,11.15
2017-10-18T06:32:44.658Z,12.27
2017-10-18T06:33:19.368Z,11.90
2017-10-18T06:33:54.071Z,12.63
2017-10-18T06:34:28.597Z,11.82
2017-10-18T06:35:03.307Z,11.05
2017-10-18T06:35:38.021Z,10.45
2017-10-18T06:36:12.722Z,10.32
2017-10-18T06:36:47.245Z,10.45
2017-10-18T06:37:21.948Z,11.35
2017-10-18T06:37:56.980Z,11.02
2017-10-18T06:38:31.688Z,11.40
2017-10-18T06:39:06.486Z,10.80
2017-10-18T06:39:41.211Z,10.82
2017-10-18T06:40:15.932Z,11.20
2017-10-18T06:40:50.635Z,10.52
2017-10-18T06:41:25.347Z,10.45
2017-10-18T06:42:00.075Z,11.55
2017-10-18T06:42:34.790Z,11.00
2017-10-18T06:43:09.802Z,11.25
2017-10-18T06:43:44.528Z,10.38
2017-10-18T06:44:19.237Z,10.73
2017-10-18T06:44:53.955Z,10.73
2017-10-18T06:45:28.470Z,10.75
2017-10-18T06:46:03.178Z,10.40
2017-10-18T06:46:37.894Z,11.18
2017-10-18T06:47:12.613Z,11.48
2017-10-18T06:47:47.319Z,10.27
2017-10-18T06:48:22.341Z,10.95
2017-10-18T06:48:57.103Z,10.48
2017-10-18T06:49:32.091Z,10.57
2017-10-18T06:50:06.797Z,9.85
2017-10-18T06:50:41.581Z,12.18
2017-10-18T06:51:16.324Z,12.60
2017-10-18T06:51:51.035Z,11.32
2017-10-18T06:52:25.748Z,10.65
2017-10-18T06:53:00.449Z,12.15
2017-10-18T06:53:35.176Z,10.32
2017-10-18T06:54:09.890Z,9.70
2017-10-18T06:54:44.632Z,10.50
2017-10-18T06:55:19.378Z,10.18
2017-10-18T06:55:54.104Z,10.25
2017-10-18T06:56:28.821Z,9.95
2017-10-18T06:57:03.773Z,10.65
2017-10-18T06:57:38.482Z,10.30
2017-10-18T06:58:13.193Z,10.32
2017-10-18T06:58:48.203Z,10.30
2017-10-18T06:59:22.929Z,10.75
2017-10-18T06:59:57.629Z,10.40
2017-10-18T07:00:32.339Z,10.50
2017-10-18T07:01:07.146Z,10.63
2017-10-18T07:01:41.858Z,10.40
2017-10-18T07:02:16.562Z,10.48
2017-10-18T07:02:51.274Z,11.32
2017-10-18T07:03:25.996Z,11.12
2017-10-18T07:04:01.035Z,10.57
2017-10-18T07:04:35.755Z,10.32
2017-10-18T07:05:10.553Z,10.65
2017-10-18T07:05:45.085Z,10.55
2017-10-18T07:06:19.790Z,11.00
2017-10-18T07:06:54.478Z,9.18
2017-10-18T07:07:29.194Z,12.20
2017-10-18T07:08:03.903Z,10.25
2017-10-18T07:08:38.617Z,10.48
2017-10-18T07:09:13.617Z,10.77
2017-10-18T07:09:48.327Z,10.48
2017-10-18T07:10:23.037Z,10.48
2017-10-18T07:10:57.756Z,10.65
2017-10-18T07:11:32.439Z,9.73
2017-10-18T07:12:07.147Z,9.98
2017-10-18T07:12:41.856Z,10.70
2017-10-18T07:13:16.546Z,9.90
2017-10-18T07:13:51.250Z,10.50
2017-10-18T07:14:25.973Z,10.60
2017-10-18T07:15:00.674Z,10.82
2017-10-18T07:15:35.386Z,10.30
2017-10-18T07:16:10.111Z,11.90
2017-10-18T07:16:44.824Z,10.52
2017-10-18T07:17:19.534Z,10.90
2017-10-18T07:17:54.256Z,10.55
2017-10-18T07:18:28.958Z,10.70
2017-10-18T07:19:03.669Z,10.50
2017-10-18T07:19:38.720Z,11.07
2017-10-18T07:20:13.443Z,10.13
2017-10-18T07:20:47.830Z,11.05
2017-10-18T07:21:22.525Z,9.20
2017-10-18T07:21:57.266Z,10.23
2017-10-18T07:22:31.962Z,10.10
2017-10-18T07:23:06.673Z,10.13
2017-10-18T07:23:41.382Z,10.55
2017-10-18T07:24:16.100Z,11.45
2017-10-18T07:24:50.848Z,11.20
2017-10-18T07:25:25.561Z,10.23
2017-10-18T07:26:00.280Z,10.23
2017-10-18T07:26:35.021Z,10.50
2017-10-18T07:27:09.733Z,10.60
2017-10-18T07:27:44.438Z,11.68
2017-10-18T07:28:19.152Z,11.43
2017-10-18T07:28:53.883Z,12.70
2017-10-18T07:29:28.616Z,14.70
2017-10-18T07:30:03.685Z,18.02
2017-10-18T07:30:38.387Z,16.52
2017-10-18T07:31:13.110Z,15.02
2017-10-18T07:31:47.873Z,16.15
2017-10-18T07:32:22.575Z,15.52
2017-10-18T07:32:57.291Z,11.73
2017-10-18T07:33:32.009Z,12.82
2017-10-18T07:34:06.726Z,13.48
2017-10-18T07:34:41.468Z,11.25
2017-10-18T07:35:16.520Z,11.32
2017-10-18T07:35:50.879Z,11.52
2017-10-18T07:36:25.614Z,12.25
2017-10-18T07:37:00.334Z,12.18
2017-10-18T07:37:35.046Z,11.40
2017-10-18T07:38:09.760Z,10.52
2017-10-18T07:38:44.279Z,11.00
2017-10-18T07:39:18.800Z,9.35
2017-10-18T07:39:53.512Z,10.80
2017-10-18T07:40:28.543Z,10.68